sensor_id;sensor_type;location;lat;lon;timestamp;temperature;humidity
12053;DHT22;6087;48.982;12.064;2023-06-26T00:00:38;21.20;1.00
12053;DHT22;6087;48.982;12.064;2023-06-26T00:03:12;21.20;1.00
12053;DHT22;6087;48.982;12.064;2023-06-26T00:05:40;21.20;1.00
12053;DHT22;6087;48.982;12.064;2023-06-26T00:08:08;21.20;1.00
12053;DHT22;6087;48.982;12.064;2023-06-26T00:10:34;21.10;1.00
12053;DHT22;6087;48.982;12.064;2023-06-26T00:13:01;21.10;1.00
12053;DHT22;6087;48.982;12.064;2023-06-26T00:15:30;21.00;1.00
12053;DHT22;6087;48.982;12.064;2023-06-26T00:17:57;21.00;1.00
12053;DHT22;6087;48.982;12.064;2023-06-26T00:20:24;20.90;1.00
12053;DHT22;6087;48.982;12.064;2023-06-26T00:22:51;20.90;1.70
12053;DHT22;6087;48.982;12.064;2023-06-26T00:25:19;20.80;2.80
12053;DHT22;6087;48.982;12.064;2023-06-26T00:27:46;20.80;3.20
12053;DHT22;6087;48.982;12.064;2023-06-26T00:30:13;20.70;3.70
12053;DHT22;6087;48.982;12.064;2023-06-26T00:32:41;20.70;3.50
12053;DHT22;6087;48.982;12.064;2023-06-26T00:35:08;20.70;4.80
12053;DHT22;6087;48.982;12.064;2023-06-26T00:37:34;20.70;4.80
12053;DHT22;6087;48.982;12.064;2023-06-26T00:40:01;20.80;5.50
12053;DHT22;6087;48.982;12.064;2023-06-26T00:42:30;20.80;6.10
12053;DHT22;6087;48.982;12.064;2023-06-26T00:44:57;20.70;6.30
12053;DHT22;6087;48.982;12.064;2023-06-26T00:47:25;20.80;5.90
12053;DHT22;6087;48.982;12.064;2023-06-26T00:49:54;20.80;6.40
12053;DHT22;6087;48.982;12.064;2023-06-26T00:52:22;20.80;6.70
12053;DHT22;6087;48.982;12.064;2023-06-26T00:54:49;20.80;7.00
12053;DHT22;6087;48.982;12.064;2023-06-26T00:57:16;20.80;7.20
12053;DHT22;6087;48.982;12.064;2023-06-26T00:59:43;20.70;7.50
12053;DHT22;6087;48.982;12.064;2023-06-26T01:02:10;20.70;9.00
12053;DHT22;6087;48.982;12.064;2023-06-26T01:04:37;20.70;10.00
12053;DHT22;6087;48.982;12.064;2023-06-26T01:07:14;20.60;10.30
12053;DHT22;6087;48.982;12.064;2023-06-26T01:09:42;20.50;10.70
12053;DHT22;6087;48.982;12.064;2023-06-26T01:12:09;20.50;11.60
12053;DHT22;6087;48.982;12.064;2023-06-26T01:14:36;20.50;12.60
12053;DHT22;6087;48.982;12.064;2023-06-26T01:17:04;20.50;12.50
12053;DHT22;6087;48.982;12.064;2023-06-26T01:19:32;20.50;12.30
12053;DHT22;6087;48.982;12.064;2023-06-26T01:22:07;20.50;13.10
12053;DHT22;6087;48.982;12.064;2023-06-26T01:24:48;20.50;12.40
12053;DHT22;6087;48.982;12.064;2023-06-26T01:27:30;20.50;12.80
12053;DHT22;6087;48.982;12.064;2023-06-26T01:30:01;20.50;13.70
12053;DHT22;6087;48.982;12.064;2023-06-26T01:32:29;20.30;15.00
12053;DHT22;6087;48.982;12.064;2023-06-26T01:34:59;20.30;15.10
12053;DHT22;6087;48.982;12.064;2023-06-26T01:37:27;20.20;15.60
12053;DHT22;6087;48.982;12.064;2023-06-26T01:39:54;20.30;16.30
12053;DHT22;6087;48.982;12.064;2023-06-26T01:42:20;20.20;16.30
12053;DHT22;6087;48.982;12.064;2023-06-26T01:44:49;20.30;16.80
12053;DHT22;6087;48.982;12.064;2023-06-26T01:47:22;20.30;17.80
12053;DHT22;6087;48.982;12.064;2023-06-26T01:49:54;20.30;18.90
12053;DHT22;6087;48.982;12.064;2023-06-26T01:52:27;20.30;19.40
12053;DHT22;6087;48.982;12.064;2023-06-26T01:55:01;20.30;19.50
12053;DHT22;6087;48.982;12.064;2023-06-26T01:57:32;20.30;19.80
12053;DHT22;6087;48.982;12.064;2023-06-26T02:00:03;20.30;21.50
12053;DHT22;6087;48.982;12.064;2023-06-26T02:02:31;20.30;21.10
12053;DHT22;6087;48.982;12.064;2023-06-26T02:04:58;20.30;21.30
12053;DHT22;6087;48.982;12.064;2023-06-26T02:07:25;20.30;21.70
12053;DHT22;6087;48.982;12.064;2023-06-26T02:09:52;20.30;21.50
12053;DHT22;6087;48.982;12.064;2023-06-26T02:12:19;20.30;21.90
12053;DHT22;6087;48.982;12.064;2023-06-26T02:14:45;20.30;22.10
12053;DHT22;6087;48.982;12.064;2023-06-26T02:17:14;20.30;21.50
12053;DHT22;6087;48.982;12.064;2023-06-26T02:19:41;20.30;22.00
12053;DHT22;6087;48.982;12.064;2023-06-26T02:22:13;20.30;21.80
12053;DHT22;6087;48.982;12.064;2023-06-26T02:24:40;20.30;21.90
12053;DHT22;6087;48.982;12.064;2023-06-26T02:27:07;20.20;22.70
12053;DHT22;6087;48.982;12.064;2023-06-26T02:29:33;20.20;22.50
12053;DHT22;6087;48.982;12.064;2023-06-26T02:32:00;20.20;22.40
12053;DHT22;6087;48.982;12.064;2023-06-26T02:34:29;20.20;22.10
12053;DHT22;6087;48.982;12.064;2023-06-26T02:36:56;20.20;21.70
12053;DHT22;6087;48.982;12.064;2023-06-26T02:39:24;20.20;22.30
12053;DHT22;6087;48.982;12.064;2023-06-26T02:41:50;20.20;22.40
12053;DHT22;6087;48.982;12.064;2023-06-26T02:44:17;20.10;22.80
12053;DHT22;6087;48.982;12.064;2023-06-26T02:46:44;20.10;23.10
12053;DHT22;6087;48.982;12.064;2023-06-26T02:49:11;20.10;23.10
12053;DHT22;6087;48.982;12.064;2023-06-26T02:51:39;20.10;24.00
12053;DHT22;6087;48.982;12.064;2023-06-26T02:54:09;20.10;24.20
12053;DHT22;6087;48.982;12.064;2023-06-26T02:56:38;20.10;24.90
12053;DHT22;6087;48.982;12.064;2023-06-26T02:59:05;20.10;24.70
12053;DHT22;6087;48.982;12.064;2023-06-26T03:01:35;20.00;25.10
12053;DHT22;6087;48.982;12.064;2023-06-26T03:04:02;20.10;25.40
12053;DHT22;6087;48.982;12.064;2023-06-26T03:06:29;20.00;26.50
12053;DHT22;6087;48.982;12.064;2023-06-26T03:08:57;20.00;26.40
12053;DHT22;6087;48.982;12.064;2023-06-26T03:11:24;20.00;27.30
12053;DHT22;6087;48.982;12.064;2023-06-26T03:13:51;20.00;27.70
12053;DHT22;6087;48.982;12.064;2023-06-26T03:16:18;20.00;28.80
12053;DHT22;6087;48.982;12.064;2023-06-26T03:18:45;19.90;28.00
12053;DHT22;6087;48.982;12.064;2023-06-26T03:21:12;20.00;28.10
12053;DHT22;6087;48.982;12.064;2023-06-26T03:23:39;19.90;28.70
12053;DHT22;6087;48.982;12.064;2023-06-26T03:26:07;19.90;29.20
12053;DHT22;6087;48.982;12.064;2023-06-26T03:28:34;19.90;29.40
12053;DHT22;6087;48.982;12.064;2023-06-26T03:31:01;19.90;30.80
12053;DHT22;6087;48.982;12.064;2023-06-26T03:33:28;19.90;31.20
12053;DHT22;6087;48.982;12.064;2023-06-26T03:35:55;19.90;32.40
12053;DHT22;6087;48.982;12.064;2023-06-26T03:38:22;19.90;34.10
12053;DHT22;6087;48.982;12.064;2023-06-26T03:40:49;19.90;34.50
12053;DHT22;6087;48.982;12.064;2023-06-26T03:43:17;19.90;36.90
12053;DHT22;6087;48.982;12.064;2023-06-26T03:45:44;19.90;37.10
12053;DHT22;6087;48.982;12.064;2023-06-26T03:48:12;19.90;35.80
12053;DHT22;6087;48.982;12.064;2023-06-26T03:50:39;19.90;36.30
12053;DHT22;6087;48.982;12.064;2023-06-26T03:53:06;19.90;36.20
12053;DHT22;6087;48.982;12.064;2023-06-26T03:55:36;19.90;35.20
12053;DHT22;6087;48.982;12.064;2023-06-26T03:58:03;19.90;35.40
12053;DHT22;6087;48.982;12.064;2023-06-26T04:00:34;19.90;34.70
12053;DHT22;6087;48.982;12.064;2023-06-26T04:03:01;19.90;35.30
12053;DHT22;6087;48.982;12.064;2023-06-26T04:05:28;19.90;35.60
12053;DHT22;6087;48.982;12.064;2023-06-26T04:07:55;19.90;36.30
12053;DHT22;6087;48.982;12.064;2023-06-26T04:10:25;19.80;36.90
12053;DHT22;6087;48.982;12.064;2023-06-26T04:12:52;19.80;36.60
12053;DHT22;6087;48.982;12.064;2023-06-26T04:15:18;19.80;37.20
12053;DHT22;6087;48.982;12.064;2023-06-26T04:17:47;19.80;38.30
12053;DHT22;6087;48.982;12.064;2023-06-26T04:20:14;19.80;39.50
12053;DHT22;6087;48.982;12.064;2023-06-26T04:22:41;19.80;41.00
12053;DHT22;6087;48.982;12.064;2023-06-26T04:25:08;19.80;42.00
12053;DHT22;6087;48.982;12.064;2023-06-26T04:27:37;19.90;42.30
12053;DHT22;6087;48.982;12.064;2023-06-26T04:30:05;19.90;43.90
12053;DHT22;6087;48.982;12.064;2023-06-26T04:32:34;19.90;45.40
12053;DHT22;6087;48.982;12.064;2023-06-26T04:35:02;19.90;48.10
12053;DHT22;6087;48.982;12.064;2023-06-26T04:37:35;19.90;48.60
12053;DHT22;6087;48.982;12.064;2023-06-26T04:40:05;19.90;48.80
12053;DHT22;6087;48.982;12.064;2023-06-26T04:42:32;19.90;48.80
12053;DHT22;6087;48.982;12.064;2023-06-26T04:44:59;19.90;50.00
12053;DHT22;6087;48.982;12.064;2023-06-26T04:47:30;19.90;51.40
12053;DHT22;6087;48.982;12.064;2023-06-26T04:49:57;19.90;52.70
12053;DHT22;6087;48.982;12.064;2023-06-26T04:52:27;19.90;50.80
12053;DHT22;6087;48.982;12.064;2023-06-26T04:54:54;19.90;50.70
12053;DHT22;6087;48.982;12.064;2023-06-26T04:57:24;19.90;52.20
12053;DHT22;6087;48.982;12.064;2023-06-26T04:59:51;19.90;51.00
12053;DHT22;6087;48.982;12.064;2023-06-26T05:02:17;19.90;51.90
12053;DHT22;6087;48.982;12.064;2023-06-26T05:04:44;20.00;53.30
12053;DHT22;6087;48.982;12.064;2023-06-26T05:07:13;20.00;53.10
12053;DHT22;6087;48.982;12.064;2023-06-26T05:09:41;20.00;52.40
12053;DHT22;6087;48.982;12.064;2023-06-26T05:12:08;20.00;53.20
12053;DHT22;6087;48.982;12.064;2023-06-26T05:14:35;20.00;52.40
12053;DHT22;6087;48.982;12.064;2023-06-26T05:17:02;20.10;52.10
12053;DHT22;6087;48.982;12.064;2023-06-26T05:19:29;20.10;53.00
12053;DHT22;6087;48.982;12.064;2023-06-26T05:21:56;20.10;53.00
12053;DHT22;6087;48.982;12.064;2023-06-26T05:24:23;20.10;53.60
12053;DHT22;6087;48.982;12.064;2023-06-26T05:26:52;20.20;53.00
12053;DHT22;6087;48.982;12.064;2023-06-26T05:29:19;20.20;53.10
12053;DHT22;6087;48.982;12.064;2023-06-26T05:31:47;20.20;52.30
12053;DHT22;6087;48.982;12.064;2023-06-26T05:34:16;20.30;52.00
12053;DHT22;6087;48.982;12.064;2023-06-26T05:36:43;20.30;53.30
12053;DHT22;6087;48.982;12.064;2023-06-26T05:39:11;20.30;52.80
12053;DHT22;6087;48.982;12.064;2023-06-26T05:41:38;20.30;52.10
12053;DHT22;6087;48.982;12.064;2023-06-26T05:44:07;20.40;50.60
12053;DHT22;6087;48.982;12.064;2023-06-26T05:46:34;20.40;51.80
12053;DHT22;6087;48.982;12.064;2023-06-26T05:49:00;20.40;50.30
12053;DHT22;6087;48.982;12.064;2023-06-26T05:51:28;20.50;52.60
12053;DHT22;6087;48.982;12.064;2023-06-26T05:53:55;20.50;52.50
12053;DHT22;6087;48.982;12.064;2023-06-26T05:56:22;20.60;51.70
12053;DHT22;6087;48.982;12.064;2023-06-26T05:58:51;20.60;51.00
12053;DHT22;6087;48.982;12.064;2023-06-26T06:01:19;20.70;51.90
12053;DHT22;6087;48.982;12.064;2023-06-26T06:03:46;20.70;54.50
12053;DHT22;6087;48.982;12.064;2023-06-26T06:06:13;20.70;54.80
12053;DHT22;6087;48.982;12.064;2023-06-26T06:08:41;20.80;57.00
12053;DHT22;6087;48.982;12.064;2023-06-26T06:11:12;20.80;55.80
12053;DHT22;6087;48.982;12.064;2023-06-26T06:13:40;20.80;56.40
12053;DHT22;6087;48.982;12.064;2023-06-26T06:16:08;20.90;54.20
12053;DHT22;6087;48.982;12.064;2023-06-26T06:18:36;20.90;55.00
12053;DHT22;6087;48.982;12.064;2023-06-26T06:21:03;21.00;56.60
12053;DHT22;6087;48.982;12.064;2023-06-26T06:23:30;21.00;55.90
12053;DHT22;6087;48.982;12.064;2023-06-26T06:25:57;21.00;56.30
12053;DHT22;6087;48.982;12.064;2023-06-26T06:28:26;21.10;56.40
12053;DHT22;6087;48.982;12.064;2023-06-26T06:30:53;21.10;55.40
12053;DHT22;6087;48.982;12.064;2023-06-26T06:33:20;21.20;56.00
12053;DHT22;6087;48.982;12.064;2023-06-26T06:35:49;21.20;54.30
12053;DHT22;6087;48.982;12.064;2023-06-26T06:38:15;21.20;53.80
12053;DHT22;6087;48.982;12.064;2023-06-26T06:40:42;21.30;55.50
12053;DHT22;6087;48.982;12.064;2023-06-26T06:43:09;21.30;52.00
12053;DHT22;6087;48.982;12.064;2023-06-26T06:45:36;21.40;53.60
12053;DHT22;6087;48.982;12.064;2023-06-26T06:48:04;21.40;48.90
12053;DHT22;6087;48.982;12.064;2023-06-26T06:50:31;21.40;48.60
12053;DHT22;6087;48.982;12.064;2023-06-26T06:52:59;21.50;49.90
12053;DHT22;6087;48.982;12.064;2023-06-26T06:55:26;21.50;49.90
12053;DHT22;6087;48.982;12.064;2023-06-26T06:57:53;21.60;48.60
12053;DHT22;6087;48.982;12.064;2023-06-26T07:00:20;21.70;48.00
12053;DHT22;6087;48.982;12.064;2023-06-26T07:02:47;21.70;46.10
12053;DHT22;6087;48.982;12.064;2023-06-26T07:05:15;21.70;44.50
12053;DHT22;6087;48.982;12.064;2023-06-26T07:07:43;21.80;45.50
12053;DHT22;6087;48.982;12.064;2023-06-26T07:10:14;21.80;44.30
12053;DHT22;6087;48.982;12.064;2023-06-26T07:12:40;21.90;44.20
12053;DHT22;6087;48.982;12.064;2023-06-26T07:15:09;21.90;42.30
12053;DHT22;6087;48.982;12.064;2023-06-26T07:17:36;22.00;40.90
12053;DHT22;6087;48.982;12.064;2023-06-26T07:20:05;22.00;37.10
12053;DHT22;6087;48.982;12.064;2023-06-26T07:22:34;22.00;36.90
12053;DHT22;6087;48.982;12.064;2023-06-26T07:25:01;22.00;23.70
12053;DHT22;6087;48.982;12.064;2023-06-26T07:27:30;22.00;20.30
12053;DHT22;6087;48.982;12.064;2023-06-26T07:29:58;22.10;25.20
12053;DHT22;6087;48.982;12.064;2023-06-26T07:32:25;22.10;27.00
12053;DHT22;6087;48.982;12.064;2023-06-26T07:34:52;22.20;19.30
12053;DHT22;6087;48.982;12.064;2023-06-26T07:37:19;22.20;17.00
12053;DHT22;6087;48.982;12.064;2023-06-26T07:39:47;22.20;18.00
12053;DHT22;6087;48.982;12.064;2023-06-26T07:42:14;22.30;17.90
12053;DHT22;6087;48.982;12.064;2023-06-26T07:44:43;22.30;17.20
12053;DHT22;6087;48.982;12.064;2023-06-26T07:47:10;22.40;12.40
12053;DHT22;6087;48.982;12.064;2023-06-26T07:49:39;22.40;13.90
12053;DHT22;6087;48.982;12.064;2023-06-26T07:52:06;22.40;14.60
12053;DHT22;6087;48.982;12.064;2023-06-26T07:54:35;22.50;18.10
12053;DHT22;6087;48.982;12.064;2023-06-26T07:57:04;22.50;21.70
12053;DHT22;6087;48.982;12.064;2023-06-26T07:59:32;22.60;24.30
12053;DHT22;6087;48.982;12.064;2023-06-26T08:02:01;22.60;19.10
12053;DHT22;6087;48.982;12.064;2023-06-26T08:04:28;22.70;16.80
12053;DHT22;6087;48.982;12.064;2023-06-26T08:06:58;22.70;17.20
12053;DHT22;6087;48.982;12.064;2023-06-26T08:09:26;22.80;16.90
12053;DHT22;6087;48.982;12.064;2023-06-26T08:11:54;22.90;16.00
12053;DHT22;6087;48.982;12.064;2023-06-26T08:14:21;22.90;16.80
12053;DHT22;6087;48.982;12.064;2023-06-26T08:16:48;22.90;16.20
12053;DHT22;6087;48.982;12.064;2023-06-26T08:19:17;23.00;17.90
12053;DHT22;6087;48.982;12.064;2023-06-26T08:21:45;23.10;18.40
12053;DHT22;6087;48.982;12.064;2023-06-26T08:24:12;23.10;14.90
12053;DHT22;6087;48.982;12.064;2023-06-26T08:26:44;23.10;16.70
12053;DHT22;6087;48.982;12.064;2023-06-26T08:29:11;23.20;15.80
12053;DHT22;6087;48.982;12.064;2023-06-26T08:31:39;23.20;14.00
12053;DHT22;6087;48.982;12.064;2023-06-26T08:34:09;23.30;11.50
12053;DHT22;6087;48.982;12.064;2023-06-26T08:36:37;23.30;12.40
12053;DHT22;6087;48.982;12.064;2023-06-26T08:39:04;23.40;12.70
12053;DHT22;6087;48.982;12.064;2023-06-26T08:41:34;23.40;9.80
12053;DHT22;6087;48.982;12.064;2023-06-26T08:44:01;23.40;9.20
12053;DHT22;6087;48.982;12.064;2023-06-26T08:46:30;23.50;11.10
12053;DHT22;6087;48.982;12.064;2023-06-26T08:49:02;23.50;10.20
12053;DHT22;6087;48.982;12.064;2023-06-26T08:51:32;23.60;10.20
12053;DHT22;6087;48.982;12.064;2023-06-26T08:54:02;23.60;9.80
12053;DHT22;6087;48.982;12.064;2023-06-26T08:56:35;23.70;11.00
12053;DHT22;6087;48.982;12.064;2023-06-26T08:59:03;23.80;7.90
12053;DHT22;6087;48.982;12.064;2023-06-26T09:01:31;23.80;7.90
12053;DHT22;6087;48.982;12.064;2023-06-26T09:04:01;23.90;8.20
12053;DHT22;6087;48.982;12.064;2023-06-26T09:06:35;23.90;7.20
12053;DHT22;6087;48.982;12.064;2023-06-26T09:09:03;23.90;8.50
12053;DHT22;6087;48.982;12.064;2023-06-26T09:11:30;24.00;6.40
12053;DHT22;6087;48.982;12.064;2023-06-26T09:14:00;24.10;5.70
12053;DHT22;6087;48.982;12.064;2023-06-26T09:16:30;24.10;3.80
12053;DHT22;6087;48.982;12.064;2023-06-26T09:18:57;24.30;2.00
12053;DHT22;6087;48.982;12.064;2023-06-26T09:21:24;24.30;1.00
12053;DHT22;6087;48.982;12.064;2023-06-26T09:23:52;24.30;2.00
12053;DHT22;6087;48.982;12.064;2023-06-26T09:26:21;24.30;1.00
12053;DHT22;6087;48.982;12.064;2023-06-26T09:28:49;24.40;1.00
12053;DHT22;6087;48.982;12.064;2023-06-26T09:31:17;24.50;1.00
12053;DHT22;6087;48.982;12.064;2023-06-26T09:33:46;24.60;1.00
12053;DHT22;6087;48.982;12.064;2023-06-26T09:36:19;24.70;1.00
12053;DHT22;6087;48.982;12.064;2023-06-26T09:38:47;24.70;1.00
12053;DHT22;6087;48.982;12.064;2023-06-26T09:41:16;24.60;1.00
12053;DHT22;6087;48.982;12.064;2023-06-26T09:43:47;24.70;1.00
12053;DHT22;6087;48.982;12.064;2023-06-26T09:46:16;24.80;1.00
12053;DHT22;6087;48.982;12.064;2023-06-26T09:48:43;24.80;1.00
12053;DHT22;6087;48.982;12.064;2023-06-26T09:51:10;24.90;1.00
12053;DHT22;6087;48.982;12.064;2023-06-26T09:53:37;24.90;1.00
12053;DHT22;6087;48.982;12.064;2023-06-26T09:56:07;25.00;1.00
12053;DHT22;6087;48.982;12.064;2023-06-26T09:58:35;25.00;1.00
12053;DHT22;6087;48.982;12.064;2023-06-26T10:01:04;25.20;1.00
12053;DHT22;6087;48.982;12.064;2023-06-26T10:03:32;25.30;1.00
12053;DHT22;6087;48.982;12.064;2023-06-26T10:06:02;25.40;1.00
12053;DHT22;6087;48.982;12.064;2023-06-26T10:08:31;25.40;1.00
12053;DHT22;6087;48.982;12.064;2023-06-26T10:11:02;25.50;1.00
12053;DHT22;6087;48.982;12.064;2023-06-26T10:13:32;25.50;1.00
12053;DHT22;6087;48.982;12.064;2023-06-26T10:16:01;25.70;1.00
12053;DHT22;6087;48.982;12.064;2023-06-26T10:18:32;25.80;1.00
12053;DHT22;6087;48.982;12.064;2023-06-26T10:21:01;25.90;1.00
12053;DHT22;6087;48.982;12.064;2023-06-26T10:23:30;26.10;1.00
12053;DHT22;6087;48.982;12.064;2023-06-26T10:25:58;26.00;1.00
12053;DHT22;6087;48.982;12.064;2023-06-26T10:28:28;26.00;1.00
12053;DHT22;6087;48.982;12.064;2023-06-26T10:30:57;26.20;1.00
12053;DHT22;6087;48.982;12.064;2023-06-26T10:33:29;26.30;1.00
12053;DHT22;6087;48.982;12.064;2023-06-26T10:36:13;26.30;1.00
12053;DHT22;6087;48.982;12.064;2023-06-26T10:38:50;26.30;1.00
12053;DHT22;6087;48.982;12.064;2023-06-26T10:41:20;26.40;1.00
12053;DHT22;6087;48.982;12.064;2023-06-26T10:43:50;26.60;1.00
12053;DHT22;6087;48.982;12.064;2023-06-26T10:46:18;26.60;1.00
12053;DHT22;6087;48.982;12.064;2023-06-26T10:49:02;26.60;1.00
12053;DHT22;6087;48.982;12.064;2023-06-26T10:51:29;26.60;1.00
12053;DHT22;6087;48.982;12.064;2023-06-26T10:53:58;26.60;1.00
12053;DHT22;6087;48.982;12.064;2023-06-26T10:56:44;26.70;1.00
12053;DHT22;6087;48.982;12.064;2023-06-26T10:59:17;26.80;1.00
12053;DHT22;6087;48.982;12.064;2023-06-26T11:01:45;26.90;1.00
12053;DHT22;6087;48.982;12.064;2023-06-26T11:04:14;26.90;1.00
12053;DHT22;6087;48.982;12.064;2023-06-26T11:06:45;27.00;1.00
12053;DHT22;6087;48.982;12.064;2023-06-26T11:09:17;27.10;1.00
12053;DHT22;6087;48.982;12.064;2023-06-26T11:12:00;27.30;1.00
12053;DHT22;6087;48.982;12.064;2023-06-26T11:14:36;27.40;1.00
12053;DHT22;6087;48.982;12.064;2023-06-26T11:17:03;27.50;1.00
12053;DHT22;6087;48.982;12.064;2023-06-26T11:19:32;27.60;1.00
12053;DHT22;6087;48.982;12.064;2023-06-26T11:22:03;27.70;1.00
12053;DHT22;6087;48.982;12.064;2023-06-26T11:24:30;27.80;1.00
12053;DHT22;6087;48.982;12.064;2023-06-26T11:27:02;27.80;1.00
12053;DHT22;6087;48.982;12.064;2023-06-26T11:29:30;27.90;1.00
12053;DHT22;6087;48.982;12.064;2023-06-26T11:32:02;27.90;1.00
12053;DHT22;6087;48.982;12.064;2023-06-26T11:34:33;27.90;1.00
12053;DHT22;6087;48.982;12.064;2023-06-26T11:37:00;28.10;1.00
12053;DHT22;6087;48.982;12.064;2023-06-26T11:39:28;28.20;1.00
12053;DHT22;6087;48.982;12.064;2023-06-26T11:41:55;28.20;1.00
12053;DHT22;6087;48.982;12.064;2023-06-26T11:44:22;28.40;1.00
12053;DHT22;6087;48.982;12.064;2023-06-26T11:46:52;28.40;1.00
12053;DHT22;6087;48.982;12.064;2023-06-26T11:49:21;28.50;1.00
12053;DHT22;6087;48.982;12.064;2023-06-26T11:51:50;28.60;1.00
12053;DHT22;6087;48.982;12.064;2023-06-26T11:54:23;28.70;1.00
12053;DHT22;6087;48.982;12.064;2023-06-26T11:56:55;28.60;1.00
12053;DHT22;6087;48.982;12.064;2023-06-26T11:59:23;28.70;1.00
12053;DHT22;6087;48.982;12.064;2023-06-26T12:01:51;28.80;1.00
12053;DHT22;6087;48.982;12.064;2023-06-26T12:04:19;28.90;1.00
12053;DHT22;6087;48.982;12.064;2023-06-26T12:06:47;29.10;1.00
12053;DHT22;6087;48.982;12.064;2023-06-26T12:09:18;29.20;1.00
12053;DHT22;6087;48.982;12.064;2023-06-26T12:11:47;29.40;1.00
12053;DHT22;6087;48.982;12.064;2023-06-26T12:14:15;29.40;1.00
12053;DHT22;6087;48.982;12.064;2023-06-26T12:16:43;29.50;1.00
12053;DHT22;6087;48.982;12.064;2023-06-26T12:19:10;29.60;1.00
12053;DHT22;6087;48.982;12.064;2023-06-26T12:21:48;29.60;1.00
12053;DHT22;6087;48.982;12.064;2023-06-26T12:24:23;29.50;1.00
12053;DHT22;6087;48.982;12.064;2023-06-26T12:26:54;29.30;1.00
12053;DHT22;6087;48.982;12.064;2023-06-26T12:29:30;29.30;1.00
12053;DHT22;6087;48.982;12.064;2023-06-26T12:31:58;29.40;1.00
12053;DHT22;6087;48.982;12.064;2023-06-26T12:34:28;29.60;1.00
12053;DHT22;6087;48.982;12.064;2023-06-26T12:36:59;29.60;1.00
12053;DHT22;6087;48.982;12.064;2023-06-26T12:39:45;29.90;1.00
12053;DHT22;6087;48.982;12.064;2023-06-26T12:42:14;30.00;1.00
12053;DHT22;6087;48.982;12.064;2023-06-26T12:44:41;30.00;1.00
12053;DHT22;6087;48.982;12.064;2023-06-26T12:47:08;29.90;1.00
12053;DHT22;6087;48.982;12.064;2023-06-26T12:49:36;29.80;1.00
12053;DHT22;6087;48.982;12.064;2023-06-26T12:52:05;29.70;1.00
12053;DHT22;6087;48.982;12.064;2023-06-26T12:54:37;29.80;1.00
12053;DHT22;6087;48.982;12.064;2023-06-26T12:57:05;29.80;1.00
12053;DHT22;6087;48.982;12.064;2023-06-26T12:59:33;30.00;1.00
12053;DHT22;6087;48.982;12.064;2023-06-26T13:02:00;30.10;1.00
12053;DHT22;6087;48.982;12.064;2023-06-26T13:04:28;30.20;1.00
12053;DHT22;6087;48.982;12.064;2023-06-26T13:06:55;30.20;1.00
12053;DHT22;6087;48.982;12.064;2023-06-26T13:09:22;30.30;1.00
12053;DHT22;6087;48.982;12.064;2023-06-26T13:11:50;30.30;1.00
12053;DHT22;6087;48.982;12.064;2023-06-26T13:14:17;30.20;1.00
12053;DHT22;6087;48.982;12.064;2023-06-26T13:16:44;30.30;1.00
12053;DHT22;6087;48.982;12.064;2023-06-26T13:19:11;30.30;1.00
12053;DHT22;6087;48.982;12.064;2023-06-26T13:21:44;30.40;1.00
12053;DHT22;6087;48.982;12.064;2023-06-26T13:24:14;30.40;1.00
12053;DHT22;6087;48.982;12.064;2023-06-26T13:26:41;30.30;1.00
12053;DHT22;6087;48.982;12.064;2023-06-26T13:29:09;30.10;1.00
12053;DHT22;6087;48.982;12.064;2023-06-26T13:31:36;30.00;1.00
12053;DHT22;6087;48.982;12.064;2023-06-26T13:34:04;30.00;1.00
12053;DHT22;6087;48.982;12.064;2023-06-26T13:36:34;30.00;1.00
12053;DHT22;6087;48.982;12.064;2023-06-26T13:39:01;30.20;1.00
12053;DHT22;6087;48.982;12.064;2023-06-26T13:41:28;30.30;1.00
12053;DHT22;6087;48.982;12.064;2023-06-26T13:43:55;30.40;1.00
12053;DHT22;6087;48.982;12.064;2023-06-26T13:46:23;30.40;1.00
12053;DHT22;6087;48.982;12.064;2023-06-26T13:48:50;30.30;1.00
12053;DHT22;6087;48.982;12.064;2023-06-26T13:51:18;30.30;1.00
12053;DHT22;6087;48.982;12.064;2023-06-26T13:53:44;30.30;1.00
12053;DHT22;6087;48.982;12.064;2023-06-26T13:56:11;30.30;1.00
12053;DHT22;6087;48.982;12.064;2023-06-26T13:58:38;30.30;1.00
12053;DHT22;6087;48.982;12.064;2023-06-26T14:01:05;30.30;1.00
12053;DHT22;6087;48.982;12.064;2023-06-26T14:03:33;30.30;1.00
12053;DHT22;6087;48.982;12.064;2023-06-26T14:06:00;30.30;1.00
12053;DHT22;6087;48.982;12.064;2023-06-26T14:08:27;30.10;1.00
12053;DHT22;6087;48.982;12.064;2023-06-26T14:10:54;30.10;1.00
12053;DHT22;6087;48.982;12.064;2023-06-26T14:13:21;30.00;1.00
12053;DHT22;6087;48.982;12.064;2023-06-26T14:15:47;30.10;1.00
12053;DHT22;6087;48.982;12.064;2023-06-26T14:18:18;30.10;1.00
12053;DHT22;6087;48.982;12.064;2023-06-26T14:20:46;30.20;1.00
12053;DHT22;6087;48.982;12.064;2023-06-26T14:23:13;30.10;1.00
12053;DHT22;6087;48.982;12.064;2023-06-26T14:25:40;30.10;1.00
12053;DHT22;6087;48.982;12.064;2023-06-26T14:28:07;30.20;1.00
12053;DHT22;6087;48.982;12.064;2023-06-26T14:30:34;30.10;1.00
12053;DHT22;6087;48.982;12.064;2023-06-26T14:33:01;30.00;1.00
12053;DHT22;6087;48.982;12.064;2023-06-26T14:35:27;29.90;1.00
12053;DHT22;6087;48.982;12.064;2023-06-26T14:37:56;29.90;1.00
12053;DHT22;6087;48.982;12.064;2023-06-26T14:40:23;29.90;1.00
12053;DHT22;6087;48.982;12.064;2023-06-26T14:42:49;29.90;1.00
12053;DHT22;6087;48.982;12.064;2023-06-26T14:45:16;29.90;1.00
12053;DHT22;6087;48.982;12.064;2023-06-26T14:47:43;30.00;1.00
12053;DHT22;6087;48.982;12.064;2023-06-26T14:50:10;29.90;1.00
12053;DHT22;6087;48.982;12.064;2023-06-26T14:52:37;29.90;1.00
12053;DHT22;6087;48.982;12.064;2023-06-26T14:55:06;29.90;1.00
12053;DHT22;6087;48.982;12.064;2023-06-26T14:57:33;29.90;1.00
12053;DHT22;6087;48.982;12.064;2023-06-26T15:00:00;29.90;1.00
12053;DHT22;6087;48.982;12.064;2023-06-26T15:02:26;29.90;1.00
12053;DHT22;6087;48.982;12.064;2023-06-26T15:04:53;30.00;1.00
12053;DHT22;6087;48.982;12.064;2023-06-26T15:07:20;30.10;1.00
12053;DHT22;6087;48.982;12.064;2023-06-26T15:09:47;30.10;1.00
12053;DHT22;6087;48.982;12.064;2023-06-26T15:12:15;30.10;1.00
12053;DHT22;6087;48.982;12.064;2023-06-26T15:14:42;30.10;1.00
12053;DHT22;6087;48.982;12.064;2023-06-26T15:17:09;30.10;1.00
12053;DHT22;6087;48.982;12.064;2023-06-26T15:19:37;30.10;1.00
12053;DHT22;6087;48.982;12.064;2023-06-26T15:22:04;30.10;1.00
12053;DHT22;6087;48.982;12.064;2023-06-26T15:24:31;30.10;1.00
12053;DHT22;6087;48.982;12.064;2023-06-26T15:26:58;30.20;1.00
12053;DHT22;6087;48.982;12.064;2023-06-26T15:29:26;30.20;1.00
12053;DHT22;6087;48.982;12.064;2023-06-26T15:31:53;30.20;1.00
12053;DHT22;6087;48.982;12.064;2023-06-26T15:34:20;30.10;1.00
12053;DHT22;6087;48.982;12.064;2023-06-26T15:36:48;30.00;1.00
12053;DHT22;6087;48.982;12.064;2023-06-26T15:39:15;30.00;1.00
12053;DHT22;6087;48.982;12.064;2023-06-26T15:41:48;29.90;1.00
12053;DHT22;6087;48.982;12.064;2023-06-26T15:44:15;29.90;1.00